Time;durP1;ratioP1;P1;durP2;ratioP2;P2;SDS_P1;SDS_P2;PMS_P1;PMS_P2;Temp;Humidity;BMP_temperature;BMP_pressure;BME280_temperature;BME280_humidity;BME280_pressure;Samples;Min_cycle;Max_cycle;Signal;HPM_P1;HPM_P2
2022/08/11 00:00:08;;;;;;;4.95;2.97;;;25.20;99.80;;;;;;5117768;28;20462;-72
2022/08/11 00:02:39;;;;;;;6.38;3.30;;;25.20;99.90;;;;;;5116835;28;20110;-73
2022/08/11 00:05:11;;;;;;;8.05;2.97;;;25.10;99.90;;;;;;5099616;28;20027;-72
2022/08/11 00:07:50;;;;;;;4.80;2.80;;;25.10;99.90;;;;;;5099129;28;20027;-72
2022/08/11 00:10:20;;;;;;;4.70;2.90;;;25.00;99.90;;;;;;5117933;28;20020;-72
2022/08/11 00:12:50;;;;;;;;;;;25.00;99.90;;;;;;5099230;28;20035;-73
2022/08/11 00:15:16;;;;;;;4.80;3.00;;;25.00;99.90;;;;;;5116165;28;20386;-73
2022/08/11 00:17:43;;;;;;;4.13;2.72;;;25.00;99.90;;;;;;5117339;28;20032;-72
2022/08/11 00:20:14;;;;;;;6.75;3.25;;;24.90;99.90;;;;;;5117736;28;20023;-72
2022/08/11 00:22:42;;;;;;;5.68;2.88;;;24.90;99.90;;;;;;5117183;28;20028;-72
2022/08/11 00:25:12;;;;;;;6.07;2.97;;;24.90;99.90;;;;;;5099154;28;20050;-72
2022/08/11 00:27:39;;;;;;;5.07;2.72;;;24.90;99.90;;;;;;5099118;28;20061;-73
2022/08/11 00:30:07;;;;;;;4.18;2.97;;;24.90;99.90;;;;;;5116593;28;20487;-73
2022/08/11 00:32:36;;;;;;;6.00;3.08;;;24.80;99.90;;;;;;5116108;28;20055;-72
2022/08/11 00:35:02;;;;;;;5.95;3.20;;;24.80;99.90;;;;;;5099581;28;20051;-72
2022/08/11 00:37:30;;;;;;;5.05;3.22;;;24.80;99.90;;;;;;5099481;28;20032;-72
2022/08/11 00:39:57;;;;;;;4.38;3.17;;;24.80;99.90;;;;;;5116029;28;20043;-73
2022/08/11 00:42:39;;;;;;;7.00;3.72;;;24.70;99.90;;;;;;5116760;28;20483;-73
2022/08/11 00:45:23;;;;;;;4.18;3.10;;;24.70;99.90;;;;;;5086403;28;20372;-72
2022/08/11 00:47:56;;;;;;;5.53;3.38;;;24.60;99.90;;;;;;5098273;28;20085;-73
2022/08/11 00:50:53;;;;;;;7.70;3.33;;;24.60;99.90;;;;;;5099245;28;20023;-72
2022/08/11 00:53:48;;;;;;;4.97;3.05;;;24.60;99.90;;;;;;5099153;28;20387;-72
2022/08/11 00:56:49;;;;;;;8.13;3.55;;;24.60;99.90;;;;;;5099037;28;20015;-73
2022/08/11 00:59:33;;;;;;;9.38;3.65;;;24.60;99.90;;;;;;5076163;28;20059;-72
2022/08/11 01:02:38;;;;;;;5.68;3.35;;;24.60;99.90;;;;;;5119883;28;20027;-74
2022/08/11 01:05:22;;;;;;;5.53;3.75;;;24.60;99.90;;;;;;5079512;28;20040;-73
2022/08/11 01:08:19;;;;;;;4.78;3.53;;;24.60;99.90;;;;;;5120422;28;20031;-72
2022/08/11 01:11:23;;;;;;;5.63;3.95;;;24.50;99.90;;;;;;5101241;28;20114;-73
2022/08/11 01:14:11;;;;;;;9.63;3.63;;;24.40;99.90;;;;;;5102780;28;20032;-73
2022/08/11 01:17:00;;;;;;;7.72;4.18;;;24.40;99.90;;;;;;5119951;28;20038;-73
2022/08/11 01:19:32;;;;;;;5.55;3.95;;;24.40;99.90;;;;;;5120267;28;20028;-72
2022/08/11 01:22:28;;;;;;;4.97;4.15;;;24.40;99.90;;;;;;5120211;28;20077;-72
2022/08/11 01:25:13;;;;;;;10.73;4.57;;;24.40;99.90;;;;;;5119145;28;20376;-73
2022/08/11 01:28:17;;;;;;;5.60;3.70;;;24.40;99.90;;;;;;5102079;28;20031;-74
2022/08/11 01:31:25;;;;;;;9.68;5.28;;;24.40;99.90;;;;;;5119145;28;20027;-73
2022/08/11 01:34:06;;;;;;;8.02;4.50;;;24.30;99.90;;;;;;5100718;28;20468;-72
2022/08/11 01:36:47;;;;;;;6.70;4.22;;;24.30;99.90;;;;;;5102267;28;20028;-73
2022/08/11 01:39:50;;;;;;;4.80;4.32;;;24.20;99.90;;;;;;5120106;28;20019;-73
2022/08/11 01:45:30;;;;;;;7.00;5.03;;;24.20;99.90;;;;;;5119869;28;20053;-72
2022/08/11 01:48:14;;;;;;;9.27;5.13;;;24.10;99.90;;;;;;5101834;28;20066;-72
2022/08/11 01:51:11;;;;;;;7.95;5.00;;;24.10;99.90;;;;;;5119927;28;20442;-72
2022/08/11 01:54:12;;;;;;;7.68;5.35;;;24.20;99.90;;;;;;5120257;28;20103;-72
2022/08/11 01:56:55;;;;;;;6.25;5.15;;;24.10;99.90;;;;;;5018725;28;20030;-72
2022/08/11 01:59:38;;;;;;;5.32;4.82;;;24.10;99.90;;;;;;5111298;28;20032;-73
2022/08/11 02:02:44;;;;;;;7.22;5.38;;;24.10;99.90;;;;;;5118812;28;20103;-72
2022/08/11 02:05:20;;;;;;;6.72;5.40;;;24.10;99.90;;;;;;5124289;27;20028;-72
2022/08/11 02:07:59;;;;;;;5.80;5.20;;;24.10;99.90;;;;;;5106842;28;20020;-72
2022/08/11 02:13:52;;;;;;;10.23;5.25;;;24.00;99.90;;;;;;5119898;28;20092;-72
2022/08/11 02:16:54;;;;;;;5.28;4.78;;;24.10;99.90;;;;;;5101318;28;20024;-73
2022/08/11 02:25:32;;;;;;;9.35;5.70;;;24.00;99.90;;;;;;5119569;28;20058;-72
2022/08/11 02:28:18;;;;;;;6.90;6.10;;;24.00;99.90;;;;;;5101248;28;20012;-73
2022/08/11 02:34:36;;;;;;;8.65;5.78;;;23.90;99.90;;;;;;5116870;28;20058;-75
2022/08/11 02:37:31;;;;;;;6.95;6.10;;;23.90;99.90;;;;;;5089080;28;20027;-73
2022/08/11 02:39:57;;;;;;;6.57;5.70;;;24.00;99.90;;;;;;5119402;28;20478;-74
2022/08/11 02:43:03;;;;;;;6.63;5.80;;;23.90;99.90;;;;;;5119462;28;20020;-74
2022/08/11 02:45:38;;;;;;;9.90;5.60;;;23.90;99.90;;;;;;5100724;28;20031;-72
2022/08/11 02:51:26;;;;;;;13.30;6.95;;;23.90;99.90;;;;;;5119447;28;20034;-75
2022/08/11 02:54:22;;;;;;;10.20;7.10;;;23.90;99.90;;;;;;5118816;28;20049;-75
2022/08/11 02:57:03;;;;;;;9.27;6.93;;;23.80;99.90;;;;;;5117447;28;20024;-72
2022/08/11 03:00:08;;;;;;;9.02;6.72;;;23.80;99.90;;;;;;5118233;28;20019;-72
2022/08/11 03:03:06;;;;;;;7.57;6.68;;;23.80;99.90;;;;;;5118162;28;20053;-75
2022/08/11 03:05:47;;;;;;;10.35;7.35;;;23.80;99.90;;;;;;5100113;28;20090;-74
2022/08/11 03:08:52;;;;;;;9.27;7.20;;;23.80;99.90;;;;;;5100470;28;20020;-76
2022/08/11 03:18:13;;;;;;;9.30;7.85;;;23.80;99.90;;;;;;5109572;28;20034;-74
2022/08/11 03:20:57;;;;;;;10.18;7.95;;;23.80;99.90;;;;;;5118179;28;20034;-74
2022/08/11 03:23:34;;;;;;;9.98;7.50;;;23.80;99.90;;;;;;5100218;28;20027;-72
2022/08/11 03:26:11;;;;;;;8.52;7.57;;;23.80;99.90;;;;;;5117731;28;20682;-74
2022/08/11 03:29:00;;;;;;;9.70;7.85;;;23.80;99.90;;;;;;5118430;28;20073;-74
2022/08/11 03:31:43;;;;;;;9.77;7.50;;;23.80;99.90;;;;;;5117676;28;20491;-75
2022/08/11 03:34:16;;;;;;;8.82;7.93;;;23.80;99.90;;;;;;5118489;28;20019;-75
2022/08/11 03:37:10;;;;;;;8.65;7.63;;;23.80;99.90;;;;;;5118318;28;20019;-74
2022/08/11 03:39:58;;;;;;;8.75;7.70;;;23.80;99.90;;;;;;5099548;28;20027;-74
2022/08/11 03:42:48;;;;;;;7.95;7.15;;;23.90;99.90;;;;;;5110721;28;20032;-75
2022/08/11 03:45:28;;;;;;;8.60;7.32;;;23.90;99.90;;;;;;5098723;28;20146;-74
2022/08/11 03:48:21;;;;;;;8.73;7.18;;;23.90;99.90;;;;;;5098171;28;20062;-74
2022/08/11 03:51:28;;;;;;;9.25;8.02;;;23.90;99.90;;;;;;5117761;28;20094;-75
2022/08/11 03:54:08;;;;;;;8.23;7.03;;;23.90;99.90;;;;;;5051963;28;20035;-74
2022/08/11 03:57:05;;;;;;;9.32;6.63;;;23.90;99.90;;;;;;5115395;28;20045;-74
2022/08/11 04:00:10;;;;;;;11.00;6.78;;;23.90;99.90;;;;;;5117986;28;20028;-74
2022/08/11 04:03:01;;;;;;;10.85;7.13;;;24.00;99.90;;;;;;5074125;28;20084;-74
2022/08/11 04:06:18;;;;;;;10.40;6.45;;;24.00;99.90;;;;;;5116615;28;20399;-75
2022/08/11 04:09:13;;;;;;;8.00;6.68;;;23.90;99.90;;;;;;5099332;28;20031;-75
2022/08/11 04:11:42;;;;;;;17.10;7.13;;;24.00;99.90;;;;;;5099613;28;20122;-72
2022/08/11 04:17:52;;;;;;;9.45;6.75;;;23.90;99.90;;;;;;5117568;28;20506;-74
2022/08/11 04:20:37;;;;;;;12.70;6.88;;;23.80;99.90;;;;;;5117457;28;20391;-74
2022/08/11 04:23:41;;;;;;;10.77;6.55;;;23.80;99.90;;;;;;5099621;28;20026;-75
2022/08/11 04:26:44;;;;;;;9.63;7.32;;;23.80;99.90;;;;;;5099219;28;20039;-75
2022/08/11 04:29:16;;;;;;;8.18;7.38;;;23.70;99.90;;;;;;5117912;28;20019;-74
2022/08/11 04:32:08;;;;;;;11.15;6.63;;;23.70;99.90;;;;;;5119997;28;20020;-74
2022/08/11 04:34:35;;;;;;;11.18;7.53;;;23.70;99.90;;;;;;5122094;28;20106;-75
2022/08/11 04:37:33;;;;;;;11.05;7.43;;;23.70;99.90;;;;;;5103583;28;20395;-75
2022/08/11 04:40:32;;;;;;;8.35;6.85;;;23.70;99.90;;;;;;5046586;28;20039;-74
2022/08/11 04:43:36;;;;;;;7.85;6.85;;;23.60;99.90;;;;;;5117488;28;20491;-74
2022/08/11 04:46:08;;;;;;;9.20;6.70;;;23.60;99.90;;;;;;5102875;28;20028;-75
2022/08/11 05:01:41;;;;;;;7.22;6.53;;;23.80;99.90;;;;;;5121283;28;20058;-75
2022/08/11 05:07:38;;;;;;;11.75;7.13;;;23.80;99.90;;;;;;5121514;28;20042;-72
2022/08/11 05:10:16;;;;;;;9.73;6.65;;;23.90;99.90;;;;;;5102940;28;20046;-75
2022/08/11 05:36:01;;;;;;;8.35;6.72;;;24.00;99.90;;;;;;5113706;28;20102;-74
2022/08/11 05:58:03;;;;;;;12.07;7.28;;;24.40;99.90;;;;;;5116896;28;20067;-75
2022/08/11 06:00:30;;;;;;;7.68;6.47;;;24.50;99.90;;;;;;5114206;28;20390;-74
2022/08/11 06:03:02;;;;;;;6.60;6.00;;;24.50;99.90;;;;;;5113688;28;20015;-74
2022/08/11 06:05:36;;;;;;;7.80;6.50;;;24.60;99.90;;;;;;5097532;28;20031;-74
2022/08/11 06:08:06;;;;;;;7.30;6.60;;;24.70;99.90;;;;;;5116789;28;20395;-73
2022/08/11 06:10:35;;;;;;;6.87;6.23;;;24.70;99.90;;;;;;5118214;28;20077;-73
2022/08/11 06:13:03;;;;;;;11.85;6.45;;;24.80;99.90;;;;;;5100741;28;20016;-73
2022/08/11 06:15:33;;;;;;;11.50;6.93;;;24.80;99.90;;;;;;5114687;28;20027;-73
2022/08/11 06:18:01;;;;;;;6.82;5.95;;;24.90;99.90;;;;;;5119114;28;20020;-74
2022/08/11 06:20:35;;;;;;;8.15;6.25;;;24.90;99.90;;;;;;5119758;28;20114;-74
2022/08/11 06:23:06;;;;;;;6.53;5.82;;;25.10;99.90;;;;;;5117138;28;20162;-74
2022/08/11 06:25:34;;;;;;;8.68;6.03;;;25.20;99.90;;;;;;5109142;28;20067;-74
2022/08/11 06:28:04;;;;;;;7.63;6.30;;;25.20;99.90;;;;;;5117390;28;20072;-73
2022/08/11 06:30:41;;;;;;;11.23;5.72;;;25.20;99.90;;;;;;5119363;28;20020;-74
2022/08/11 06:33:20;;;;;;;8.57;6.28;;;25.30;99.90;;;;;;5100420;28;20031;-74
2022/08/11 06:36:09;;;;;;;9.50;5.90;;;25.40;99.90;;;;;;5103942;28;20101;-74
2022/08/11 06:39:08;;;;;;;8.40;7.03;;;25.40;99.90;;;;;;5119217;28;20024;-74
2022/08/11 06:42:04;;;;;;;7.13;6.00;;;25.40;99.90;;;;;;5117856;28;20092;-74
2022/08/11 06:44:39;;;;;;;6.32;5.38;;;25.50;99.90;;;;;;5115719;28;20052;-73
2022/08/11 06:47:10;;;;;;;10.55;6.40;;;25.60;99.90;;;;;;5105363;28;20031;-74
2022/08/11 06:52:35;;;;;;;7.82;6.22;;;25.80;99.90;;;;;;5117776;28;19952;-76
2022/08/11 07:01:10;;;;;;;8.05;6.00;;;26.00;99.90;;;;;;5116862;28;20062;-73
2022/08/11 07:03:42;;;;;;;7.30;5.10;;;26.10;99.90;;;;;;5118627;28;20543;-74
2022/08/11 07:06:14;;;;;;;9.20;5.55;;;26.20;99.90;;;;;;5112012;28;20035;-73
2022/08/11 07:29:03;;;;;;;10.73;5.55;;;26.90;99.90;;;;;;5117936;28;20027;-73
2022/08/11 07:31:40;;;;;;;9.93;5.40;;;27.00;99.90;;;;;;5117751;28;20047;-73
2022/08/11 07:34:17;;;;;;;7.72;5.65;;;26.90;99.90;;;;;;5084411;28;20026;-74
2022/08/11 07:36:54;;;;;;;7.28;4.97;;;27.00;99.90;;;;;;5117149;28;20024;-74
2022/08/11 07:39:31;;;;;;;8.52;5.70;;;27.10;99.90;;;;;;5112128;28;20015;-74
2022/08/11 07:41:58;;;;;;;6.13;5.28;;;27.20;99.90;;;;;;5093163;28;20056;-73
2022/08/11 07:44:28;;;;;;;9.75;5.60;;;27.20;99.90;;;;;;5107951;28;20487;-74
2022/08/11 07:52:31;;;;;;;7.28;5.70;;;27.40;99.90;;;;;;5117922;28;20065;-74
2022/08/11 07:55:14;;;;;;;8.35;5.57;;;27.50;99.90;;;;;;5117988;28;20019;-73
2022/08/11 08:19:47;;;;;;;6.80;4.43;;;28.40;99.90;;;;;;5105740;28;20518;-77
2022/08/11 08:22:18;;;;;;;7.18;4.43;;;28.60;99.90;;;;;;5100940;28;20051;-77
2022/08/11 08:24:45;;;;;;;8.23;4.95;;;28.60;99.90;;;;;;5101171;28;20052;-77
2022/08/11 08:27:13;;;;;;;8.85;4.72;;;28.60;99.90;;;;;;5116016;28;20571;-77
2022/08/11 08:32:26;;;;;;;6.90;4.60;;;28.90;99.90;;;;;;5115587;28;20466;-78
2022/08/11 08:34:57;;;;;;;8.05;5.63;;;28.90;99.90;;;;;;5115633;28;20015;-79
2022/08/11 08:37:25;;;;;;;6.57;4.90;;;28.70;99.90;;;;;;5109409;28;20027;-77
2022/08/11 08:39:52;;;;;;;9.82;4.90;;;28.90;99.90;;;;;;5115629;28;20107;-77
2022/08/11 08:42:30;;;;;;;6.72;4.82;;;28.90;99.90;;;;;;5117366;28;20028;-76
2022/08/11 08:45:02;;;;;;;5.50;4.85;;;29.00;99.90;;;;;;5116070;28;20040;-76
2022/08/11 08:47:30;;;;;;;7.15;4.43;;;29.00;99.90;;;;;;5116981;28;20024;-77
2022/08/11 08:50:06;;;;;;;6.68;4.35;;;29.10;99.90;;;;;;5107505;28;20106;-77
2022/08/11 08:52:40;;;;;;;6.13;5.15;;;29.30;99.90;;;;;;5114263;28;20016;-76
2022/08/11 08:55:29;;;;;;;5.00;4.50;;;29.20;99.90;;;;;;5113772;28;20031;-75
2022/08/11 08:57:59;;;;;;;13.38;5.10;;;29.30;99.90;;;;;;5104213;28;20385;-75
2022/08/11 09:00:38;;;;;;;6.07;4.90;;;29.40;99.90;;;;;;5107055;28;20055;-76
2022/08/11 09:03:08;;;;;;;5.57;4.40;;;29.60;99.90;;;;;;5111720;28;20027;-76
2022/08/11 09:05:34;;;;;;;5.27;4.50;;;29.60;99.90;;;;;;5113047;28;20027;-74
2022/08/11 09:08:00;;;;;;;11.43;4.63;;;29.60;99.90;;;;;;5104363;28;20012;-75
2022/08/11 09:10:29;;;;;;;5.82;3.90;;;29.80;99.90;;;;;;5096162;28;20058;-75
2022/08/11 09:12:57;;;;;;;6.30;3.83;;;30.00;99.90;;;;;;5109496;28;20502;-75
2022/08/11 09:15:24;;;;;;;5.65;4.10;;;30.10;99.90;;;;;;5107198;28;20027;-75
2022/08/11 09:18:00;;;;;;;4.38;3.97;;;30.10;99.90;;;;;;5105063;28;20065;-75
2022/08/11 09:20:28;;;;;;;7.30;4.43;;;30.20;99.90;;;;;;5106047;28;20076;-74
2022/08/11 09:28:30;;;;;;;8.15;4.18;;;30.40;99.90;;;;;;5118469;28;20034;-76
2022/08/11 09:30:59;;;;;;;6.32;3.90;;;30.40;99.90;;;;;;5111709;28;20453;-75
2022/08/11 09:33:28;;;;;;;7.18;3.80;;;30.60;99.90;;;;;;5118622;28;20015;-75
2022/08/11 09:35:54;;;;;;;7.28;4.63;;;30.70;99.90;;;;;;5120631;28;20039;-76
2022/08/11 09:41:18;;;;;;;9.98;4.25;;;30.70;99.90;;;;;;5061919;28;20037;-76
2022/08/11 09:46:31;;;;;;;12.35;5.07;;;30.70;99.90;;;;;;5120061;28;20026;-75
2022/08/11 09:49:00;;;;;;;8.00;4.15;;;30.60;99.90;;;;;;5120288;28;20026;-75
2022/08/11 09:51:30;;;;;;;7.72;3.92;;;30.70;99.90;;;;;;5120204;28;20027;-75
2022/08/11 09:53:58;;;;;;;18.30;4.20;;;30.80;99.90;;;;;;5118850;28;20024;-76
2022/08/11 09:59:09;;;;;;;7.28;3.88;;;31.00;99.90;;;;;;5110502;28;20062;-73
2022/08/11 10:02:02;;;;;;;8.07;4.20;;;31.10;99.90;;;;;;5114503;28;20024;-74
2022/08/11 10:04:34;;;;;;;7.68;4.18;;;31.20;99.90;;;;;;5097804;28;20100;-73
2022/08/11 10:07:09;;;;;;;6.93;4.38;;;31.40;99.90;;;;;;5104492;28;20099;-73
2022/08/11 10:10:11;;;;;;;6.65;3.80;;;31.50;99.90;;;;;;5119781;28;20102;-73
2022/08/11 10:12:45;;;;;;;10.30;4.15;;;31.50;99.90;;;;;;5118275;28;20097;-73
2022/08/11 10:15:33;;;;;;;4.80;3.92;;;31.40;99.90;;;;;;5110364;28;20024;-73
2022/08/11 10:21:37;;;;;;;8.68;3.90;;;31.50;99.90;;;;;;5119575;28;20038;-73
2022/08/11 10:26:54;;;;;;;9.88;4.40;;;31.50;99.90;;;;;;5118618;28;20148;-73
2022/08/11 10:35:24;;;;;;;6.30;3.65;;;31.80;99.90;;;;;;5115417;28;20077;-74
2022/08/11 10:37:53;;;;;;;13.43;3.97;;;31.90;99.90;;;;;;5112965;28;20051;-74
2022/08/11 10:40:22;;;;;;;5.63;3.85;;;31.90;99.90;;;;;;5118545;28;20476;-75
2022/08/11 10:43:04;;;;;;;6.20;3.80;;;32.00;99.90;;;;;;5119120;28;20110;-75
2022/08/11 10:48:28;;;;;;;6.90;3.58;;;32.00;99.90;;;;;;5118946;28;20058;-75
2022/08/11 10:51:13;;;;;;;6.38;3.47;;;32.10;99.90;;;;;;5118702;28;20014;-74
2022/08/11 10:59:23;;;;;;;9.55;3.80;;;32.30;99.90;;;;;;5118205;28;20104;-75
2022/08/11 11:01:51;;;;;;;3.78;3.25;;;32.30;99.90;;;;;;5118375;28;20382;-74
2022/08/11 11:04:37;;;;;;;7.57;3.45;;;32.30;99.90;;;;;;5118511;28;20038;-75
2022/08/11 11:07:19;;;;;;;8.02;3.58;;;32.40;99.90;;;;;;5113622;28;20024;-74
2022/08/11 11:10:05;;;;;;;8.85;3.40;;;32.40;99.80;;;;;;5109454;28;20087;-74
2022/08/11 11:18:34;;;;;;;10.13;3.33;;;32.50;98.40;;;;;;5113865;28;20459;-74
2022/08/11 11:21:14;;;;;;;7.32;3.15;;;32.60;98.70;;;;;;5117017;28;20023;-75
2022/08/11 11:24:16;;;;;;;6.47;3.33;;;32.60;99.00;;;;;;5106942;28;20372;-76
2022/08/11 11:27:06;;;;;;;7.60;3.38;;;32.90;99.50;;;;;;5117941;28;20880;-75
2022/08/11 11:30:02;;;;;;;3.80;3.15;;;33.00;98.20;;;;;;5117924;28;20031;-75
2022/08/11 11:32:34;;;;;;;5.47;3.08;;;32.90;97.80;;;;;;5109201;28;20024;-75
2022/08/11 11:35:07;;;;;;;5.78;3.60;;;32.90;97.90;;;;;;5117900;28;20023;-74
2022/08/11 11:37:34;;;;;;;6.55;3.35;;;33.10;97.90;;;;;;5110859;28;20115;-74
2022/08/11 11:40:09;;;;;;;5.00;3.40;;;33.00;97.70;;;;;;5117504;28;20024;-75
2022/08/11 11:42:35;;;;;;;10.18;3.50;;;33.00;97.50;;;;;;5111972;28;20008;-75
2022/08/11 11:45:02;;;;;;;6.55;3.20;;;33.10;97.20;;;;;;5117841;28;20049;-75
2022/08/11 11:47:30;;;;;;;5.57;3.45;;;33.10;96.70;;;;;;5117672;28;20546;-75
2022/08/11 11:49:56;;;;;;;6.03;3.10;;;33.10;96.90;;;;;;5117876;28;20020;-75
2022/08/11 11:52:23;;;;;;;4.80;3.60;;;33.20;96.40;;;;;;5115573;28;20008;-74
2022/08/11 11:54:54;;;;;;;6.40;3.90;;;33.30;96.00;;;;;;5118015;28;20023;-74
2022/08/11 12:02:58;;;;;;;5.77;3.33;;;33.50;94.90;;;;;;5117898;28;20026;-75
2022/08/11 12:05:26;;;;;;;6.73;3.00;;;33.60;94.80;;;;;;5116065;28;20030;-76
2022/08/11 12:13:49;;;;;;;3.65;3.25;;;34.00;93.70;;;;;;5115009;28;20034;-75
2022/08/11 12:16:18;;;;;;;4.05;2.85;;;34.30;93.10;;;;;;5115935;28;20032;-74
2022/08/11 12:18:48;;;;;;;5.85;3.03;;;34.50;92.30;;;;;;5103884;28;20015;-75
2022/08/11 12:21:15;;;;;;;4.88;3.97;;;34.50;92.50;;;;;;5116108;28;20051;-75
2022/08/11 12:29:18;;;;;;;4.90;3.10;;;35.10;91.60;;;;;;5113433;28;20024;-75
2022/08/11 12:31:45;;;;;;;3.17;2.80;;;35.20;90.60;;;;;;5117016;28;20094;-75
2022/08/11 12:34:13;;;;;;;3.80;3.08;;;35.20;90.70;;;;;;5117261;28;20028;-76
2022/08/11 12:36:58;;;;;;;5.47;3.25;;;35.20;90.90;;;;;;5117231;28;20392;-76
2022/08/11 12:53:27;;;;;;;6.22;3.47;;;36.00;88.70;;;;;;5120897;28;20027;-76
2022/08/11 12:58:49;;;;;;;5.78;3.78;;;36.10;86.50;;;;;;5121157;28;20031;-74
2022/08/11 13:06:45;;;;;;;3.88;3.00;;;36.40;85.10;;;;;;5113841;28;20027;-74
2022/08/11 13:09:11;;;;;;;6.90;3.75;;;36.50;84.80;;;;;;5112225;28;20479;-72
2022/08/11 13:14:31;;;;;;;7.63;3.47;;;36.30;83.00;;;;;;5109201;28;20068;-72
2022/08/11 13:19:45;;;;;;;7.25;3.55;;;36.40;81.70;;;;;;5116654;28;20039;-73
2022/08/11 13:22:12;;;;;;;4.82;3.30;;;36.60;80.30;;;;;;5120675;27;20467;-73
2022/08/11 13:24:39;;;;;;;6.03;3.35;;;36.60;78.50;;;;;;5118301;28;20177;-73
2022/08/11 13:27:06;;;;;;;4.22;3.20;;;36.80;77.60;;;;;;5106486;28;20012;-73
2022/08/11 13:29:34;;;;;;;4.72;3.35;;;37.00;79.10;;;;;;5114983;28;20024;-73
2022/08/11 13:32:01;;;;;;;5.32;3.20;;;37.10;78.40;;;;;;5118384;28;20521;-73
2022/08/11 13:34:29;;;;;;;4.68;2.92;;;37.10;78.30;;;;;;5119011;28;20126;-73
2022/08/11 13:36:59;;;;;;;8.63;2.90;;;37.30;76.10;;;;;;5118293;28;20035;-73
2022/08/11 13:39:27;;;;;;;4.25;2.50;;;37.70;76.50;;;;;;5119667;28;20020;-73
2022/08/11 13:41:55;;;;;;;6.50;3.78;;;37.80;74.50;;;;;;5118683;28;20055;-74
2022/08/11 13:44:23;;;;;;;4.25;3.35;;;37.80;72.10;;;;;;5118526;28;20028;-73
2022/08/11 13:46:50;;;;;;;7.85;3.17;;;37.40;72.50;;;;;;5118818;28;20023;-73
2022/08/11 13:49:17;;;;;;;4.53;3.15;;;37.20;75.20;;;;;;5120042;28;20099;-72
2022/08/11 13:51:43;;;;;;;4.75;3.38;;;37.10;76.70;;;;;;5120165;28;20027;-73
2022/08/11 13:54:17;;;;;;;11.50;3.47;;;37.00;75.20;;;;;;5116142;28;20023;-74
2022/08/11 13:56:46;;;;;;;5.68;3.50;;;36.60;73.90;;;;;;5118067;28;20031;-74
2022/08/11 13:59:13;;;;;;;4.95;3.13;;;36.60;75.90;;;;;;5113703;28;20130;-76
2022/08/11 14:01:46;;;;;;;6.15;3.17;;;36.80;75.80;;;;;;5118972;27;20028;-76
2022/08/11 14:04:18;;;;;;;7.63;3.25;;;36.80;74.90;;;;;;5117849;28;20026;-76
2022/08/11 14:06:49;;;;;;;7.38;2.88;;;37.10;74.50;;;;;;5111993;28;20491;-75
2022/08/11 14:09:24;;;;;;;7.60;3.15;;;37.20;74.40;;;;;;5118455;28;20039;-73
2022/08/11 14:14:37;;;;;;;6.05;3.35;;;38.00;72.40;;;;;;5117176;28;20045;-75
2022/08/11 14:17:07;;;;;;;5.53;3.45;;;38.20;70.90;;;;;;5111645;28;20016;-74
2022/08/11 14:19:41;;;;;;;11.45;3.67;;;38.50;70.20;;;;;;5114283;28;20471;-72
2022/08/11 14:22:07;;;;;;;4.50;3.63;;;38.50;69.40;;;;;;5106659;28;20020;-72
2022/08/11 14:24:41;;;;;;;6.57;3.25;;;38.10;68.50;;;;;;5119082;28;20103;-73
2022/08/11 14:27:10;;;;;;;6.63;3.28;;;37.90;68.20;;;;;;5119275;28;20011;-72
2022/08/11 14:29:39;;;;;;;6.30;3.13;;;37.80;69.80;;;;;;5118946;28;20023;-73
2022/08/11 14:32:10;;;;;;;4.50;3.05;;;37.40;68.80;;;;;;5099680;28;20016;-73
2022/08/11 14:34:40;;;;;;;6.10;3.60;;;37.40;69.90;;;;;;5102088;28;20024;-73
2022/08/11 14:37:14;;;;;;;4.70;2.67;;;37.50;69.70;;;;;;5117910;28;20022;-71
2022/08/11 14:47:03;;;;;;;6.45;2.88;;;37.80;70.00;;;;;;5114059;28;20062;-72
2022/08/11 14:48:26;;;;;;;6.15;3.85;;;38.70;68.50;;;;;;5063419;28;20642;-72
2022/08/11 14:50:52;;;;;;;7.10;2.60;;;38.80;67.20;;;;;;5112404;28;20106;-72
2022/08/11 14:53:21;;;;;;;6.07;2.85;;;38.80;67.10;;;;;;5118631;27;20020;-73
2022/08/11 14:58:35;;;;;;;4.50;3.10;;;39.50;65.80;;;;;;5118883;28;20031;-72
2022/08/11 15:01:02;;;;;;;4.05;3.05;;;39.30;65.40;;;;;;5105100;28;20063;-73
2022/08/11 15:03:32;;;;;;;8.07;2.85;;;39.20;63.10;;;;;;5106903;28;20551;-72
2022/08/11 15:06:00;;;;;;;;;;;38.90;63.70;;;;;;5116465;28;20026;-72
2022/08/11 15:14:01;;;;;;;4.93;3.40;;;38.70;63.20;;;;;;5118483;28;20092;-76
2022/08/11 15:19:14;;;;;;;3.13;2.47;;;40.10;62.80;;;;;;5115848;28;20057;-74
2022/08/11 15:24:25;;;;;;;5.05;3.15;;;41.60;59.30;;;;;;5117840;28;20418;-74
2022/08/11 15:38:00;;;;;;;8.02;2.55;;;42.10;57.90;;;;;;5109413;28;20035;-74
2022/08/11 15:46:38;;;;;;;4.40;2.40;;;41.80;56.60;;;;;;5117274;28;20045;-75
2022/08/11 15:49:12;;;;;;;4.27;2.13;;;41.90;56.00;;;;;;5110520;28;20024;-74
2022/08/11 15:52:09;;;;;;;5.03;3.00;;;42.10;54.90;;;;;;5117358;28;20253;-76
2022/08/11 15:54:40;;;;;;;6.63;2.78;;;42.10;53.90;;;;;;5114425;28;20028;-74
2022/08/11 15:57:07;;;;;;;4.80;2.30;;;42.50;54.20;;;;;;5117086;27;20415;-75
2022/08/11 16:05:04;;;;;;;5.05;2.42;;;42.50;53.40;;;;;;5098866;28;20024;-73
2022/08/11 16:07:34;;;;;;;7.32;2.17;;;43.20;52.50;;;;;;5097057;28;20015;-74
2022/08/11 16:10:32;;;;;;;6.45;2.58;;;43.40;52.30;;;;;;5097445;28;20048;-73
2022/08/11 16:18:39;;;;;;;5.40;2.47;;;44.30;50.90;;;;;;5116630;28;20053;-74
2022/08/11 16:21:10;;;;;;;4.15;2.55;;;44.80;50.50;;;;;;5106860;28;20132;-73
2022/08/11 16:23:39;;;;;;;4.80;2.38;;;45.00;49.50;;;;;;5098714;28;20047;-73
2022/08/11 16:26:06;;;;;;;3.88;2.40;;;44.80;50.00;;;;;;5112276;28;20058;-73
2022/08/11 16:28:33;;;;;;;4.85;2.40;;;44.40;49.40;;;;;;5116396;28;20057;-73
2022/08/11 16:31:01;;;;;;;2.85;2.30;;;44.10;49.90;;;;;;5116266;28;20540;-73
2022/08/11 16:33:29;;;;;;;5.75;2.85;;;43.90;50.20;;;;;;5116450;28;20020;-73
2022/08/11 16:38:42;;;;;;;4.90;2.22;;;43.80;49.70;;;;;;5116028;28;21567;-72
2022/08/11 16:41:12;;;;;;;4.43;2.70;;;43.20;50.00;;;;;;5116321;28;20026;-73
2022/08/11 16:49:10;;;;;;;5.68;3.40;;;43.60;50.20;;;;;;5116495;28;20036;-74
2022/08/11 16:51:36;;;;;;;11.25;3.70;;;43.30;51.10;;;;;;5115703;28;20023;-73
2022/08/11 16:54:03;;;;;;;6.05;2.97;;;43.40;51.40;;;;;;5114855;28;20028;-72
2022/08/11 16:56:40;;;;;;;8.40;2.80;;;43.20;51.20;;;;;;5116258;28;20030;-72
2022/08/11 16:59:17;;;;;;;4.35;2.35;;;43.40;51.40;;;;;;5105457;28;20028;-72
2022/08/11 17:02:09;;;;;;;4.60;2.38;;;43.40;51.40;;;;;;5113858;28;20039;-72
2022/08/11 17:13:14;;;;;;;7.72;3.03;;;42.40;53.40;;;;;;5114716;28;20496;-73
2022/08/11 17:16:07;;;;;;;4.43;2.87;;;42.30;53.30;;;;;;5115737;28;20026;-72
2022/08/11 17:18:40;;;;;;;4.43;2.55;;;41.80;53.80;;;;;;5114891;28;20274;-72
2022/08/11 17:21:11;;;;;;;3.58;2.53;;;41.40;55.30;;;;;;5116093;28;20020;-72
2022/08/11 17:23:45;;;;;;;5.18;2.53;;;41.40;55.50;;;;;;5116002;28;20505;-72
2022/08/11 17:26:15;;;;;;;3.72;2.70;;;41.30;55.90;;;;;;5102764;28;20119;-73
2022/08/11 17:28:43;;;;;;;4.82;2.88;;;40.30;57.40;;;;;;5096253;28;20020;-74
2022/08/11 17:36:43;;;;;;;5.18;3.03;;;37.60;64.80;;;;;;5114880;28;20067;-75
2022/08/11 17:39:11;;;;;;;4.05;3.08;;;36.80;66.70;;;;;;5117387;28;20023;-76
2022/08/11 17:49:55;;;;;;;11.45;3.60;;;35.20;74.50;;;;;;5106449;28;20044;-73
2022/08/11 18:01:00;;;;;;;8.15;4.15;;;34.50;79.90;;;;;;5108065;28;20146;-72
2022/08/11 18:03:28;;;;;;;7.30;3.70;;;34.30;81.50;;;;;;5117198;28;20031;-75
2022/08/11 18:05:56;;;;;;;7.97;4.60;;;34.20;81.30;;;;;;5115525;28;20028;-76
